sensor_id;sensor_type;location;lat;lon;timestamp;P1;durP1;ratioP1;P2;durP2;ratioP2
20910;SDS011;10615;42.702;23.314;2024-02-21T00:00:54;7.18;;;5.47;;
20910;SDS011;10615;42.702;23.314;2024-02-21T00:01:55;6.18;;;5.22;;
20910;SDS011;10615;42.702;23.314;2024-02-21T00:02:55;9.93;;;6.10;;
20910;SDS011;10615;42.702;23.314;2024-02-21T00:03:59;7.68;;;5.72;;
20910;SDS011;10615;42.702;23.314;2024-02-21T00:05:00;7.35;;;5.78;;
20910;SDS011;10615;42.702;23.314;2024-02-21T00:06:00;6.38;;;5.10;;
20910;SDS011;10615;42.702;23.314;2024-02-21T00:07:01;6.45;;;5.18;;
20910;SDS011;10615;42.702;23.314;2024-02-21T00:08:02;6.82;;;5.60;;
20910;SDS011;10615;42.702;23.314;2024-02-21T00:09:05;6.05;;;5.07;;
20910;SDS011;10615;42.702;23.314;2024-02-21T00:10:06;7.72;;;5.80;;
20910;SDS011;10615;42.702;23.314;2024-02-21T00:11:07;6.15;;;4.97;;
20910;SDS011;10615;42.702;23.314;2024-02-21T00:12:08;5.82;;;5.10;;
20910;SDS011;10615;42.702;23.314;2024-02-21T00:13:09;6.57;;;4.78;;
20910;SDS011;10615;42.702;23.314;2024-02-21T00:14:09;7.43;;;5.18;;
20910;SDS011;10615;42.702;23.314;2024-02-21T00:15:10;6.55;;;5.05;;
20910;SDS011;10615;42.702;23.314;2024-02-21T00:16:11;7.03;;;5.15;;
20910;SDS011;10615;42.702;23.314;2024-02-21T00:17:13;5.75;;;5.00;;
20910;SDS011;10615;42.702;23.314;2024-02-21T00:18:14;6.75;;;5.53;;
20910;SDS011;10615;42.702;23.314;2024-02-21T00:19:14;6.55;;;4.75;;
20910;SDS011;10615;42.702;23.314;2024-02-21T00:20:15;5.70;;;4.90;;
20910;SDS011;10615;42.702;23.314;2024-02-21T00:21:17;6.30;;;5.03;;
20910;SDS011;10615;42.702;23.314;2024-02-21T00:22:18;6.53;;;4.93;;
20910;SDS011;10615;42.702;23.314;2024-02-21T00:23:19;5.65;;;4.90;;
20910;SDS011;10615;42.702;23.314;2024-02-21T00:24:20;6.10;;;5.13;;
20910;SDS011;10615;42.702;23.314;2024-02-21T00:25:20;7.00;;;5.40;;
20910;SDS011;10615;42.702;23.314;2024-02-21T00:26:21;7.07;;;5.15;;
20910;SDS011;10615;42.702;23.314;2024-02-21T00:27:22;5.95;;;5.18;;
20910;SDS011;10615;42.702;23.314;2024-02-21T00:28:22;6.00;;;4.78;;
20910;SDS011;10615;42.702;23.314;2024-02-21T00:29:23;5.32;;;4.80;;
20910;SDS011;10615;42.702;23.314;2024-02-21T00:30:24;7.18;;;5.65;;
20910;SDS011;10615;42.702;23.314;2024-02-21T00:31:25;7.07;;;5.43;;
20910;SDS011;10615;42.702;23.314;2024-02-21T00:32:26;6.70;;;5.25;;
20910;SDS011;10615;42.702;23.314;2024-02-21T00:33:26;6.35;;;5.25;;
20910;SDS011;10615;42.702;23.314;2024-02-21T00:34:27;7.32;;;4.90;;
20910;SDS011;10615;42.702;23.314;2024-02-21T00:35:28;6.30;;;5.13;;
20910;SDS011;10615;42.702;23.314;2024-02-21T00:36:28;5.32;;;4.70;;
20910;SDS011;10615;42.702;23.314;2024-02-21T00:37:30;7.25;;;5.22;;
20910;SDS011;10615;42.702;23.314;2024-02-21T00:38:31;6.15;;;4.82;;
20910;SDS011;10615;42.702;23.314;2024-02-21T00:39:32;6.05;;;5.22;;
20910;SDS011;10615;42.702;23.314;2024-02-21T00:40:33;7.03;;;4.60;;
20910;SDS011;10615;42.702;23.314;2024-02-21T00:41:35;6.10;;;4.85;;
20910;SDS011;10615;42.702;23.314;2024-02-21T00:42:35;6.43;;;4.90;;
20910;SDS011;10615;42.702;23.314;2024-02-21T00:43:36;7.57;;;4.80;;
20910;SDS011;10615;42.702;23.314;2024-02-21T00:44:37;7.65;;;4.97;;
20910;SDS011;10615;42.702;23.314;2024-02-21T00:45:38;5.40;;;4.43;;
20910;SDS011;10615;42.702;23.314;2024-02-21T00:46:39;5.60;;;4.35;;
20910;SDS011;10615;42.702;23.314;2024-02-21T00:47:39;5.00;;;4.50;;
20910;SDS011;10615;42.702;23.314;2024-02-21T00:48:40;5.50;;;4.55;;
20910;SDS011;10615;42.702;23.314;2024-02-21T00:49:41;5.70;;;4.50;;
20910;SDS011;10615;42.702;23.314;2024-02-21T00:50:42;5.38;;;4.80;;
20910;SDS011;10615;42.702;23.314;2024-02-21T00:51:42;5.55;;;4.75;;
20910;SDS011;10615;42.702;23.314;2024-02-21T00:52:43;6.82;;;4.75;;
20910;SDS011;10615;42.702;23.314;2024-02-21T00:53:44;6.38;;;4.93;;
20910;SDS011;10615;42.702;23.314;2024-02-21T00:54:45;6.70;;;4.97;;
20910;SDS011;10615;42.702;23.314;2024-02-21T00:55:46;9.75;;;6.32;;
20910;SDS011;10615;42.702;23.314;2024-02-21T00:56:46;7.03;;;5.45;;
20910;SDS011;10615;42.702;23.314;2024-02-21T00:57:47;8.25;;;5.97;;
20910;SDS011;10615;42.702;23.314;2024-02-21T00:58:48;17.85;;;10.45;;
20910;SDS011;10615;42.702;23.314;2024-02-21T00:59:49;14.57;;;10.05;;
20910;SDS011;10615;42.702;23.314;2024-02-21T01:00:49;11.23;;;8.10;;
20910;SDS011;10615;42.702;23.314;2024-02-21T01:01:50;13.65;;;9.52;;
20910;SDS011;10615;42.702;23.314;2024-02-21T01:02:51;9.35;;;7.30;;
20910;SDS011;10615;42.702;23.314;2024-02-21T01:03:51;11.35;;;9.18;;
20910;SDS011;10615;42.702;23.314;2024-02-21T01:04:53;8.05;;;6.15;;
20910;SDS011;10615;42.702;23.314;2024-02-21T01:05:54;6.05;;;5.03;;
20910;SDS011;10615;42.702;23.314;2024-02-21T01:06:55;6.95;;;4.85;;
20910;SDS011;10615;42.702;23.314;2024-02-21T01:07:55;7.95;;;5.57;;
20910;SDS011;10615;42.702;23.314;2024-02-21T01:08:56;10.20;;;6.40;;
20910;SDS011;10615;42.702;23.314;2024-02-21T01:09:57;5.60;;;4.65;;
20910;SDS011;10615;42.702;23.314;2024-02-21T01:10:57;7.82;;;5.05;;
20910;SDS011;10615;42.702;23.314;2024-02-21T01:11:58;7.55;;;5.80;;
20910;SDS011;10615;42.702;23.314;2024-02-21T01:12:59;10.52;;;7.60;;
20910;SDS011;10615;42.702;23.314;2024-02-21T01:13:59;23.02;;;13.20;;
20910;SDS011;10615;42.702;23.314;2024-02-21T01:15:00;22.33;;;13.75;;
20910;SDS011;10615;42.702;23.314;2024-02-21T01:16:01;15.07;;;8.93;;
20910;SDS011;10615;42.702;23.314;2024-02-21T01:17:02;23.48;;;14.55;;
20910;SDS011;10615;42.702;23.314;2024-02-21T01:18:02;40.33;;;24.08;;
20910;SDS011;10615;42.702;23.314;2024-02-21T01:19:05;45.83;;;26.40;;
20910;SDS011;10615;42.702;23.314;2024-02-21T01:20:06;57.60;;;31.08;;
20910;SDS011;10615;42.702;23.314;2024-02-21T01:21:07;82.55;;;38.35;;
20910;SDS011;10615;42.702;23.314;2024-02-21T01:22:08;78.18;;;35.58;;
20910;SDS011;10615;42.702;23.314;2024-02-21T01:23:09;37.45;;;19.55;;
20910;SDS011;10615;42.702;23.314;2024-02-21T01:24:09;26.58;;;14.27;;
20910;SDS011;10615;42.702;23.314;2024-02-21T01:25:10;69.13;;;27.42;;
20910;SDS011;10615;42.702;23.314;2024-02-21T01:26:11;72.60;;;29.98;;
20910;SDS011;10615;42.702;23.314;2024-02-21T01:27:13;69.80;;;28.25;;
20910;SDS011;10615;42.702;23.314;2024-02-21T01:28:14;116.82;;;44.08;;
20910;SDS011;10615;42.702;23.314;2024-02-21T01:29:15;127.97;;;47.17;;
20910;SDS011;10615;42.702;23.314;2024-02-21T01:30:16;135.07;;;52.85;;
20910;SDS011;10615;42.702;23.314;2024-02-21T01:31:16;68.00;;;28.13;;
20910;SDS011;10615;42.702;23.314;2024-02-21T01:32:17;48.22;;;20.60;;
20910;SDS011;10615;42.702;23.314;2024-02-21T01:33:18;34.78;;;16.08;;
20910;SDS011;10615;42.702;23.314;2024-02-21T01:34:19;17.73;;;9.18;;
20910;SDS011;10615;42.702;23.314;2024-02-21T01:35:20;10.38;;;7.07;;
20910;SDS011;10615;42.702;23.314;2024-02-21T01:36:20;12.55;;;6.60;;
20910;SDS011;10615;42.702;23.314;2024-02-21T01:37:21;6.53;;;5.43;;
20910;SDS011;10615;42.702;23.314;2024-02-21T01:38:22;7.38;;;5.00;;
20910;SDS011;10615;42.702;23.314;2024-02-21T01:39:23;7.38;;;5.70;;
20910;SDS011;10615;42.702;23.314;2024-02-21T01:40:23;6.35;;;5.20;;
20910;SDS011;10615;42.702;23.314;2024-02-21T01:41:24;5.88;;;4.95;;
20910;SDS011;10615;42.702;23.314;2024-02-21T01:42:25;6.57;;;5.28;;
20910;SDS011;10615;42.702;23.314;2024-02-21T01:43:26;6.90;;;5.28;;
20910;SDS011;10615;42.702;23.314;2024-02-21T01:44:26;6.55;;;4.85;;
20910;SDS011;10615;42.702;23.314;2024-02-21T01:45:27;6.95;;;5.00;;
20910;SDS011;10615;42.702;23.314;2024-02-21T01:46:28;5.65;;;5.00;;
20910;SDS011;10615;42.702;23.314;2024-02-21T01:47:48;4.88;;;4.38;;
20910;SDS011;10615;42.702;23.314;2024-02-21T01:48:49;5.47;;;4.72;;
20910;SDS011;10615;42.702;23.314;2024-02-21T01:49:50;5.68;;;4.90;;
20910;SDS011;10615;42.702;23.314;2024-02-21T01:50:51;5.18;;;4.68;;
20910;SDS011;10615;42.702;23.314;2024-02-21T01:51:55;5.90;;;4.78;;
20910;SDS011;10615;42.702;23.314;2024-02-21T01:52:56;6.22;;;4.85;;
20910;SDS011;10615;42.702;23.314;2024-02-21T01:53:56;5.53;;;4.82;;
20910;SDS011;10615;42.702;23.314;2024-02-21T01:54:58;5.05;;;4.25;;
20910;SDS011;10615;42.702;23.314;2024-02-21T01:55:58;6.38;;;4.88;;
20910;SDS011;10615;42.702;23.314;2024-02-21T01:57:00;6.10;;;4.65;;
20910;SDS011;10615;42.702;23.314;2024-02-21T01:58:01;5.97;;;4.82;;
20910;SDS011;10615;42.702;23.314;2024-02-21T01:59:02;6.47;;;5.07;;
20910;SDS011;10615;42.702;23.314;2024-02-21T02:00:03;5.32;;;4.57;;
20910;SDS011;10615;42.702;23.314;2024-02-21T02:01:05;5.95;;;4.80;;
20910;SDS011;10615;42.702;23.314;2024-02-21T02:02:06;5.97;;;4.70;;
20910;SDS011;10615;42.702;23.314;2024-02-21T02:03:07;5.80;;;5.18;;
20910;SDS011;10615;42.702;23.314;2024-02-21T02:04:10;6.93;;;5.68;;
20910;SDS011;10615;42.702;23.314;2024-02-21T02:05:11;5.18;;;4.60;;
20910;SDS011;10615;42.702;23.314;2024-02-21T02:06:12;5.65;;;4.43;;
20910;SDS011;10615;42.702;23.314;2024-02-21T02:07:14;5.88;;;4.75;;
20910;SDS011;10615;42.702;23.314;2024-02-21T02:08:18;5.40;;;4.80;;
20910;SDS011;10615;42.702;23.314;2024-02-21T02:09:19;6.15;;;5.13;;
20910;SDS011;10615;42.702;23.314;2024-02-21T02:10:20;5.32;;;4.45;;
20910;SDS011;10615;42.702;23.314;2024-02-21T02:11:21;6.10;;;4.90;;
20910;SDS011;10615;42.702;23.314;2024-02-21T02:12:22;6.60;;;5.43;;
20910;SDS011;10615;42.702;23.314;2024-02-21T02:13:22;5.55;;;4.53;;
20910;SDS011;10615;42.702;23.314;2024-02-21T02:14:23;5.07;;;4.40;;
20910;SDS011;10615;42.702;23.314;2024-02-21T02:15:25;6.10;;;4.82;;
20910;SDS011;10615;42.702;23.314;2024-02-21T02:16:25;5.75;;;5.00;;
20910;SDS011;10615;42.702;23.314;2024-02-21T02:17:26;5.63;;;5.03;;
20910;SDS011;10615;42.702;23.314;2024-02-21T02:18:27;6.35;;;5.63;;
20910;SDS011;10615;42.702;23.314;2024-02-21T02:19:27;7.70;;;5.75;;
20910;SDS011;10615;42.702;23.314;2024-02-21T02:20:28;5.95;;;5.28;;
20910;SDS011;10615;42.702;23.314;2024-02-21T02:21:29;8.07;;;5.78;;
20910;SDS011;10615;42.702;23.314;2024-02-21T02:22:34;6.95;;;5.70;;
20910;SDS011;10615;42.702;23.314;2024-02-21T02:23:39;6.70;;;5.55;;
20910;SDS011;10615;42.702;23.314;2024-02-21T02:24:40;7.38;;;5.75;;
20910;SDS011;10615;42.702;23.314;2024-02-21T02:25:41;8.50;;;6.20;;
20910;SDS011;10615;42.702;23.314;2024-02-21T02:26:41;6.93;;;5.60;;
20910;SDS011;10615;42.702;23.314;2024-02-21T02:27:42;7.20;;;6.03;;
20910;SDS011;10615;42.702;23.314;2024-02-21T02:28:46;7.57;;;6.03;;
20910;SDS011;10615;42.702;23.314;2024-02-21T02:29:47;7.78;;;5.75;;
20910;SDS011;10615;42.702;23.314;2024-02-21T02:30:48;8.27;;;6.30;;
20910;SDS011;10615;42.702;23.314;2024-02-21T02:31:49;9.80;;;6.32;;
20910;SDS011;10615;42.702;23.314;2024-02-21T02:32:50;9.52;;;6.72;;
20910;SDS011;10615;42.702;23.314;2024-02-21T02:33:50;8.15;;;6.60;;
20910;SDS011;10615;42.702;23.314;2024-02-21T02:34:51;7.78;;;6.40;;
20910;SDS011;10615;42.702;23.314;2024-02-21T02:35:52;9.52;;;6.40;;
20910;SDS011;10615;42.702;23.314;2024-02-21T02:36:52;7.40;;;5.65;;
20910;SDS011;10615;42.702;23.314;2024-02-21T02:37:54;7.47;;;6.20;;
20910;SDS011;10615;42.702;23.314;2024-02-21T02:38:55;7.50;;;5.80;;
20910;SDS011;10615;42.702;23.314;2024-02-21T02:39:56;8.27;;;6.43;;
20910;SDS011;10615;42.702;23.314;2024-02-21T02:40:56;6.57;;;5.65;;
20910;SDS011;10615;42.702;23.314;2024-02-21T02:41:57;7.93;;;6.13;;
20910;SDS011;10615;42.702;23.314;2024-02-21T02:42:58;7.80;;;6.32;;
20910;SDS011;10615;42.702;23.314;2024-02-21T02:43:59;7.10;;;5.80;;
20910;SDS011;10615;42.702;23.314;2024-02-21T02:44:59;7.68;;;6.55;;
20910;SDS011;10615;42.702;23.314;2024-02-21T02:46:00;7.57;;;6.50;;
20910;SDS011;10615;42.702;23.314;2024-02-21T02:47:01;6.40;;;5.72;;
20910;SDS011;10615;42.702;23.314;2024-02-21T02:48:02;8.02;;;6.00;;
20910;SDS011;10615;42.702;23.314;2024-02-21T02:49:03;7.50;;;6.30;;
20910;SDS011;10615;42.702;23.314;2024-02-21T02:50:03;8.60;;;6.93;;
20910;SDS011;10615;42.702;23.314;2024-02-21T02:51:05;7.75;;;6.72;;
20910;SDS011;10615;42.702;23.314;2024-02-21T02:52:05;7.82;;;6.78;;
20910;SDS011;10615;42.702;23.314;2024-02-21T02:53:06;7.90;;;6.80;;
20910;SDS011;10615;42.702;23.314;2024-02-21T02:54:07;9.30;;;7.43;;
20910;SDS011;10615;42.702;23.314;2024-02-21T02:55:08;7.93;;;7.13;;
20910;SDS011;10615;42.702;23.314;2024-02-21T02:56:13;8.70;;;7.35;;
20910;SDS011;10615;42.702;23.314;2024-02-21T02:57:17;8.20;;;7.25;;
20910;SDS011;10615;42.702;23.314;2024-02-21T02:58:18;9.93;;;7.43;;
20910;SDS011;10615;42.702;23.314;2024-02-21T02:59:19;9.27;;;7.45;;
20910;SDS011;10615;42.702;23.314;2024-02-21T03:00:20;8.63;;;7.38;;
20910;SDS011;10615;42.702;23.314;2024-02-21T03:01:20;9.45;;;7.70;;
20910;SDS011;10615;42.702;23.314;2024-02-21T03:02:21;9.45;;;7.75;;
20910;SDS011;10615;42.702;23.314;2024-02-21T03:03:22;9.55;;;7.63;;
20910;SDS011;10615;42.702;23.314;2024-02-21T03:04:23;8.82;;;7.68;;
20910;SDS011;10615;42.702;23.314;2024-02-21T03:05:23;9.23;;;7.70;;
20910;SDS011;10615;42.702;23.314;2024-02-21T03:06:24;9.35;;;7.68;;
20910;SDS011;10615;42.702;23.314;2024-02-21T03:07:25;11.18;;;8.00;;
20910;SDS011;10615;42.702;23.314;2024-02-21T03:08:26;9.55;;;8.20;;
20910;SDS011;10615;42.702;23.314;2024-02-21T03:09:26;10.15;;;8.32;;
20910;SDS011;10615;42.702;23.314;2024-02-21T03:10:28;9.00;;;8.10;;
20910;SDS011;10615;42.702;23.314;2024-02-21T03:11:29;9.85;;;7.85;;
20910;SDS011;10615;42.702;23.314;2024-02-21T03:12:29;8.85;;;7.53;;
20910;SDS011;10615;42.702;23.314;2024-02-21T03:13:30;10.02;;;8.65;;
20910;SDS011;10615;42.702;23.314;2024-02-21T03:14:31;9.73;;;8.05;;
20910;SDS011;10615;42.702;23.314;2024-02-21T03:15:32;10.48;;;8.02;;
20910;SDS011;10615;42.702;23.314;2024-02-21T03:16:33;10.35;;;8.35;;
20910;SDS011;10615;42.702;23.314;2024-02-21T03:17:34;9.13;;;7.78;;
20910;SDS011;10615;42.702;23.314;2024-02-21T03:18:35;9.52;;;7.97;;
20910;SDS011;10615;42.702;23.314;2024-02-21T03:19:35;9.90;;;7.97;;
20910;SDS011;10615;42.702;23.314;2024-02-21T03:20:36;10.43;;;8.55;;
20910;SDS011;10615;42.702;23.314;2024-02-21T03:21:37;9.68;;;7.80;;
20910;SDS011;10615;42.702;23.314;2024-02-21T03:22:38;10.45;;;8.45;;
20910;SDS011;10615;42.702;23.314;2024-02-21T03:23:39;10.57;;;8.32;;
20910;SDS011;10615;42.702;23.314;2024-02-21T03:24:40;10.27;;;7.95;;
20910;SDS011;10615;42.702;23.314;2024-02-21T03:25:41;10.95;;;8.50;;
20910;SDS011;10615;42.702;23.314;2024-02-21T03:26:41;11.32;;;8.70;;
20910;SDS011;10615;42.702;23.314;2024-02-21T03:27:42;9.45;;;8.10;;
20910;SDS011;10615;42.702;23.314;2024-02-21T03:28:43;9.90;;;8.23;;
20910;SDS011;10615;42.702;23.314;2024-02-21T03:29:48;9.93;;;8.63;;
20910;SDS011;10615;42.702;23.314;2024-02-21T03:30:49;10.85;;;8.50;;
20910;SDS011;10615;42.702;23.314;2024-02-21T03:31:49;9.40;;;7.88;;
20910;SDS011;10615;42.702;23.314;2024-02-21T03:32:50;10.60;;;8.18;;
20910;SDS011;10615;42.702;23.314;2024-02-21T03:33:51;11.55;;;8.02;;
20910;SDS011;10615;42.702;23.314;2024-02-21T03:34:52;11.23;;;8.48;;
20910;SDS011;10615;42.702;23.314;2024-02-21T03:35:52;9.65;;;8.05;;
20910;SDS011;10615;42.702;23.314;2024-02-21T03:36:53;10.73;;;8.55;;
20910;SDS011;10615;42.702;23.314;2024-02-21T03:37:54;9.75;;;8.00;;
20910;SDS011;10615;42.702;23.314;2024-02-21T03:38:55;10.43;;;8.68;;
20910;SDS011;10615;42.702;23.314;2024-02-21T03:39:55;10.07;;;7.78;;
20910;SDS011;10615;42.702;23.314;2024-02-21T03:40:56;9.68;;;8.05;;
20910;SDS011;10615;42.702;23.314;2024-02-21T03:41:57;10.05;;;8.35;;
20910;SDS011;10615;42.702;23.314;2024-02-21T03:42:58;10.02;;;8.45;;
20910;SDS011;10615;42.702;23.314;2024-02-21T03:43:58;11.25;;;8.68;;
20910;SDS011;10615;42.702;23.314;2024-02-21T03:44:59;10.43;;;8.27;;
20910;SDS011;10615;42.702;23.314;2024-02-21T03:46:00;10.25;;;8.18;;
20910;SDS011;10615;42.702;23.314;2024-02-21T03:47:01;10.95;;;8.18;;
20910;SDS011;10615;42.702;23.314;2024-02-21T03:48:02;10.38;;;8.70;;
20910;SDS011;10615;42.702;23.314;2024-02-21T03:49:03;10.98;;;8.55;;
20910;SDS011;10615;42.702;23.314;2024-02-21T03:50:05;12.30;;;8.70;;
20910;SDS011;10615;42.702;23.314;2024-02-21T03:51:06;9.75;;;8.20;;
20910;SDS011;10615;42.702;23.314;2024-02-21T03:52:07;10.85;;;8.68;;
20910;SDS011;10615;42.702;23.314;2024-02-21T03:53:09;9.65;;;7.95;;
20910;SDS011;10615;42.702;23.314;2024-02-21T03:54:09;9.38;;;8.02;;
20910;SDS011;10615;42.702;23.314;2024-02-21T03:55:10;11.32;;;8.27;;
20910;SDS011;10615;42.702;23.314;2024-02-21T03:56:11;11.15;;;7.93;;
20910;SDS011;10615;42.702;23.314;2024-02-21T03:57:11;10.18;;;7.93;;
20910;SDS011;10615;42.702;23.314;2024-02-21T03:58:12;10.27;;;8.52;;
20910;SDS011;10615;42.702;23.314;2024-02-21T03:59:13;11.27;;;8.43;;
20910;SDS011;10615;42.702;23.314;2024-02-21T04:00:14;10.60;;;8.10;;
20910;SDS011;10615;42.702;23.314;2024-02-21T04:01:15;10.48;;;8.25;;
20910;SDS011;10615;42.702;23.314;2024-02-21T04:02:16;10.25;;;8.30;;
20910;SDS011;10615;42.702;23.314;2024-02-21T04:03:17;10.23;;;8.20;;
20910;SDS011;10615;42.702;23.314;2024-02-21T04:04:18;10.60;;;8.23;;
20910;SDS011;10615;42.702;23.314;2024-02-21T04:05:19;9.68;;;8.10;;
20910;SDS011;10615;42.702;23.314;2024-02-21T04:06:19;10.88;;;8.75;;
20910;SDS011;10615;42.702;23.314;2024-02-21T04:07:20;9.40;;;8.15;;
20910;SDS011;10615;42.702;23.314;2024-02-21T04:08:22;10.40;;;8.60;;
20910;SDS011;10615;42.702;23.314;2024-02-21T04:09:23;10.23;;;8.43;;
20910;SDS011;10615;42.702;23.314;2024-02-21T04:10:23;9.90;;;8.15;;
20910;SDS011;10615;42.702;23.314;2024-02-21T04:11:24;11.20;;;8.65;;
20910;SDS011;10615;42.702;23.314;2024-02-21T04:12:25;10.27;;;8.20;;
20910;SDS011;10615;42.702;23.314;2024-02-21T04:13:26;10.02;;;8.20;;
20910;SDS011;10615;42.702;23.314;2024-02-21T04:14:26;10.07;;;8.07;;
20910;SDS011;10615;42.702;23.314;2024-02-21T04:15:27;10.10;;;8.02;;
20910;SDS011;10615;42.702;23.314;2024-02-21T04:16:28;11.25;;;8.52;;
20910;SDS011;10615;42.702;23.314;2024-02-21T04:17:29;10.07;;;7.95;;
20910;SDS011;10615;42.702;23.314;2024-02-21T04:18:29;11.43;;;8.93;;
20910;SDS011;10615;42.702;23.314;2024-02-21T04:19:30;9.93;;;8.07;;
20910;SDS011;10615;42.702;23.314;2024-02-21T04:20:31;9.95;;;8.40;;
20910;SDS011;10615;42.702;23.314;2024-02-21T04:21:32;10.65;;;8.32;;
20910;SDS011;10615;42.702;23.314;2024-02-21T04:22:33;9.45;;;7.65;;
20910;SDS011;10615;42.702;23.314;2024-02-21T04:23:34;9.55;;;7.95;;
20910;SDS011;10615;42.702;23.314;2024-02-21T04:24:35;9.93;;;8.02;;
20910;SDS011;10615;42.702;23.314;2024-02-21T04:25:35;10.20;;;8.43;;
20910;SDS011;10615;42.702;23.314;2024-02-21T04:26:36;10.20;;;7.93;;
20910;SDS011;10615;42.702;23.314;2024-02-21T04:27:40;11.52;;;8.75;;
20910;SDS011;10615;42.702;23.314;2024-02-21T04:28:41;10.25;;;8.45;;
20910;SDS011;10615;42.702;23.314;2024-02-21T04:29:44;9.52;;;8.05;;
20910;SDS011;10615;42.702;23.314;2024-02-21T04:30:45;10.68;;;8.40;;
20910;SDS011;10615;42.702;23.314;2024-02-21T04:31:46;11.02;;;9.02;;
20910;SDS011;10615;42.702;23.314;2024-02-21T04:32:46;11.40;;;8.43;;
20910;SDS011;10615;42.702;23.314;2024-02-21T04:33:47;10.85;;;9.35;;
20910;SDS011;10615;42.702;23.314;2024-02-21T04:34:48;10.65;;;8.77;;
20910;SDS011;10615;42.702;23.314;2024-02-21T04:35:48;11.18;;;9.10;;
20910;SDS011;10615;42.702;23.314;2024-02-21T04:36:49;13.63;;;10.50;;
20910;SDS011;10615;42.702;23.314;2024-02-21T04:37:50;13.93;;;10.55;;
20910;SDS011;10615;42.702;23.314;2024-02-21T04:38:50;13.93;;;10.70;;
20910;SDS011;10615;42.702;23.314;2024-02-21T04:39:51;12.68;;;11.02;;
20910;SDS011;10615;42.702;23.314;2024-02-21T04:40:52;11.82;;;9.93;;
20910;SDS011;10615;42.702;23.314;2024-02-21T04:41:53;12.75;;;10.70;;
20910;SDS011;10615;42.702;23.314;2024-02-21T04:42:54;12.48;;;10.20;;
20910;SDS011;10615;42.702;23.314;2024-02-21T04:43:54;11.77;;;9.57;;
20910;SDS011;10615;42.702;23.314;2024-02-21T04:44:55;12.00;;;9.85;;
20910;SDS011;10615;42.702;23.314;2024-02-21T04:45:56;11.55;;;9.63;;
20910;SDS011;10615;42.702;23.314;2024-02-21T04:46:56;12.05;;;9.45;;
20910;SDS011;10615;42.702;23.314;2024-02-21T04:47:57;13.90;;;9.88;;
20910;SDS011;10615;42.702;23.314;2024-02-21T04:48:58;14.23;;;10.70;;
20910;SDS011;10615;42.702;23.314;2024-02-21T04:49:59;12.07;;;10.23;;
20910;SDS011;10615;42.702;23.314;2024-02-21T04:50:59;14.52;;;10.80;;
20910;SDS011;10615;42.702;23.314;2024-02-21T04:52:00;14.15;;;10.35;;
20910;SDS011;10615;42.702;23.314;2024-02-21T04:53:01;13.77;;;10.75;;
20910;SDS011;10615;42.702;23.314;2024-02-21T04:54:02;13.43;;;10.40;;
20910;SDS011;10615;42.702;23.314;2024-02-21T04:55:04;13.48;;;10.32;;
20910;SDS011;10615;42.702;23.314;2024-02-21T04:56:05;11.80;;;9.35;;
20910;SDS011;10615;42.702;23.314;2024-02-21T04:57:06;11.48;;;9.40;;
20910;SDS011;10615;42.702;23.314;2024-02-21T04:58:07;11.88;;;9.63;;
20910;SDS011;10615;42.702;23.314;2024-02-21T04:59:08;11.25;;;9.38;;
20910;SDS011;10615;42.702;23.314;2024-02-21T05:00:08;12.20;;;8.98;;
20910;SDS011;10615;42.702;23.314;2024-02-21T05:01:10;13.05;;;9.80;;
20910;SDS011;10615;42.702;23.314;2024-02-21T05:02:11;13.27;;;10.52;;
20910;SDS011;10615;42.702;23.314;2024-02-21T05:03:12;11.98;;;9.48;;
20910;SDS011;10615;42.702;23.314;2024-02-21T05:04:13;13.05;;;9.93;;
20910;SDS011;10615;42.702;23.314;2024-02-21T05:05:13;12.65;;;10.30;;
20910;SDS011;10615;42.702;23.314;2024-02-21T05:06:16;12.68;;;10.30;;
20910;SDS011;10615;42.702;23.314;2024-02-21T05:07:17;12.40;;;9.63;;
20910;SDS011;10615;42.702;23.314;2024-02-21T05:08:19;11.93;;;9.68;;
20910;SDS011;10615;42.702;23.314;2024-02-21T05:09:20;12.82;;;10.02;;
20910;SDS011;10615;42.702;23.314;2024-02-21T05:10:21;13.50;;;10.65;;
20910;SDS011;10615;42.702;23.314;2024-02-21T05:11:22;12.48;;;10.27;;
20910;SDS011;10615;42.702;23.314;2024-02-21T05:12:22;13.65;;;9.82;;
20910;SDS011;10615;42.702;23.314;2024-02-21T05:13:23;12.57;;;9.98;;
20910;SDS011;10615;42.702;23.314;2024-02-21T05:14:24;13.70;;;10.55;;
20910;SDS011;10615;42.702;23.314;2024-02-21T05:15:26;11.98;;;9.38;;
20910;SDS011;10615;42.702;23.314;2024-02-21T05:16:27;12.32;;;9.80;;
20910;SDS011;10615;42.702;23.314;2024-02-21T05:17:28;13.90;;;10.07;;
20910;SDS011;10615;42.702;23.314;2024-02-21T05:18:29;15.00;;;11.15;;
20910;SDS011;10615;42.702;23.314;2024-02-21T05:19:29;13.38;;;10.23;;
20910;SDS011;10615;42.702;23.314;2024-02-21T05:20:30;17.02;;;11.23;;
20910;SDS011;10615;42.702;23.314;2024-02-21T05:21:31;14.43;;;10.80;;
20910;SDS011;10615;42.702;23.314;2024-02-21T05:22:31;13.27;;;9.80;;
20910;SDS011;10615;42.702;23.314;2024-02-21T05:23:32;14.93;;;10.65;;
20910;SDS011;10615;42.702;23.314;2024-02-21T05:24:33;13.27;;;10.15;;
20910;SDS011;10615;42.702;23.314;2024-02-21T05:25:34;14.90;;;10.95;;
20910;SDS011;10615;42.702;23.314;2024-02-21T05:26:34;13.23;;;10.27;;
20910;SDS011;10615;42.702;23.314;2024-02-21T05:27:35;13.80;;;10.77;;
20910;SDS011;10615;42.702;23.314;2024-02-21T05:28:36;15.40;;;11.27;;
20910;SDS011;10615;42.702;23.314;2024-02-21T05:29:37;13.52;;;10.35;;
20910;SDS011;10615;42.702;23.314;2024-02-21T05:30:38;14.13;;;9.88;;
20910;SDS011;10615;42.702;23.314;2024-02-21T05:32:51;13.38;;;10.40;;
20910;SDS011;10615;42.702;23.314;2024-02-21T05:33:52;14.13;;;10.45;;
20910;SDS011;10615;42.702;23.314;2024-02-21T05:34:52;18.83;;;10.40;;
20910;SDS011;10615;42.702;23.314;2024-02-21T05:35:53;13.95;;;10.75;;
20910;SDS011;10615;42.702;23.314;2024-02-21T05:36:54;16.10;;;11.00;;
20910;SDS011;10615;42.702;23.314;2024-02-21T05:37:55;16.25;;;11.95;;
20910;SDS011;10615;42.702;23.314;2024-02-21T05:38:56;17.02;;;11.35;;
20910;SDS011;10615;42.702;23.314;2024-02-21T05:39:57;20.80;;;12.02;;
20910;SDS011;10615;42.702;23.314;2024-02-21T05:40:58;19.55;;;11.77;;
20910;SDS011;10615;42.702;23.314;2024-02-21T05:41:58;18.50;;;12.30;;
20910;SDS011;10615;42.702;23.314;2024-02-21T05:42:59;16.05;;;11.20;;
20910;SDS011;10615;42.702;23.314;2024-02-21T05:44:00;15.02;;;11.43;;
20910;SDS011;10615;42.702;23.314;2024-02-21T05:45:01;15.07;;;11.32;;
20910;SDS011;10615;42.702;23.314;2024-02-21T05:46:01;17.13;;;11.68;;
20910;SDS011;10615;42.702;23.314;2024-02-21T05:47:02;16.23;;;12.50;;
20910;SDS011;10615;42.702;23.314;2024-02-21T05:48:03;15.45;;;12.02;;
20910;SDS011;10615;42.702;23.314;2024-02-21T05:49:04;16.65;;;11.70;;
20910;SDS011;10615;42.702;23.314;2024-02-21T05:50:05;16.20;;;11.32;;
20910;SDS011;10615;42.702;23.314;2024-02-21T05:51:06;15.90;;;11.38;;
20910;SDS011;10615;42.702;23.314;2024-02-21T05:52:07;16.05;;;11.43;;
20910;SDS011;10615;42.702;23.314;2024-02-21T05:53:07;16.42;;;11.40;;
20910;SDS011;10615;42.702;23.314;2024-02-21T05:54:08;14.80;;;12.05;;
20910;SDS011;10615;42.702;23.314;2024-02-21T05:55:09;16.40;;;11.60;;
20910;SDS011;10615;42.702;23.314;2024-02-21T05:56:10;21.15;;;12.63;;
20910;SDS011;10615;42.702;23.314;2024-02-21T05:57:11;15.15;;;11.18;;
20910;SDS011;10615;42.702;23.314;2024-02-21T05:58:12;17.33;;;12.65;;
20910;SDS011;10615;42.702;23.314;2024-02-21T05:59:13;18.85;;;12.63;;
20910;SDS011;10615;42.702;23.314;2024-02-21T06:00:14;15.73;;;11.60;;